Terminal Aerodrome Forecast
Issued by NWS Blacksburg, VA

Current Version | Previous Version | Graphics & Text | Print | Product List | Glossary Off
Versions: 1 2 3 4 5 6 7 8 9 10 11 12 13 14 15 16 17 18 19 20 21 22 23 24 25 26 27 28 29 30 31 32 33 34

000
FTUS41 KRNK 011146
TAFBLF
TAF
KBLF 011146Z 0112/0212 25007KT P6SM OVC013
     FM011400 27010G18KT P6SM SCT015 SCT025 BKN250
     FM011800 28010G18KT P6SM VCTS BKN045CB OVC100
     FM020000 26005KT P6SM BKN045 OVC080
     FM020900 27004KT 4SM BR VCSH OVC015
      TEMPO 0209/0212 2SM BR OVC007=

USA.gov is the U.S. government's official web portal to all federal, state and local government web resources and services.